createdAt,value
2019-03-11T00:00:37.188Z,88.24
2019-03-11T00:05:33.102Z,88.54
2019-03-11T00:10:29.103Z,88.48
2019-03-11T00:15:25.131Z,88.19
2019-03-11T00:20:21.033Z,87.61
2019-03-11T00:25:17.036Z,87.25
2019-03-11T00:30:12.948Z,87.07
2019-03-11T00:35:08.880Z,86.99
2019-03-11T00:40:08.243Z,86.81
2019-03-11T00:45:07.787Z,86.76
2019-03-11T00:50:06.299Z,86.29
2019-03-11T00:55:03.713Z,86.01
2019-03-11T00:59:59.622Z,86.29
2019-03-11T01:04:55.530Z,85.30
2019-03-11T01:09:51.467Z,85.71
2019-03-11T01:14:47.392Z,85.56
2019-03-11T01:19:43.299Z,85.22
2019-03-11T01:24:39.205Z,85.42
2019-03-11T01:29:35.110Z,85.59
2019-03-11T01:34:31.051Z,85.58
2019-03-11T01:39:26.953Z,85.61
2019-03-11T01:44:22.867Z,85.61
2019-03-11T01:49:18.772Z,85.91
2019-03-11T01:54:14.840Z,86.30
2019-03-11T01:59:10.907Z,88.88
2019-03-11T02:04:06.818Z,90.70
2019-03-11T02:09:04.041Z,91.08
2019-03-11T02:13:59.949Z,91.07
2019-03-11T02:18:55.912Z,90.29
2019-03-11T02:23:51.824Z,90.46
2019-03-11T02:28:47.727Z,90.65
2019-03-11T02:33:43.619Z,90.99
2019-03-11T02:38:39.506Z,91.23
2019-03-11T02:43:35.417Z,91.41
2019-03-11T02:48:31.440Z,91.41
2019-03-11T02:53:27.348Z,91.47
2019-03-11T02:58:23.255Z,92.27
2019-03-11T03:03:39.314Z,92.61
2019-03-11T03:08:35.212Z,92.10
2019-03-11T03:13:31.121Z,91.23
2019-03-11T03:18:27.054Z,90.66
2019-03-11T03:23:22.941Z,90.17
2019-03-11T03:28:18.856Z,90.13
2019-03-11T03:33:14.837Z,90.01
2019-03-11T03:38:10.789Z,90.58
2019-03-11T03:43:06.973Z,91.01
2019-03-11T03:48:03.120Z,90.76
2019-03-11T03:52:59.056Z,90.79
2019-03-11T03:57:55.639Z,90.95
2019-03-11T04:02:51.606Z,90.96
2019-03-11T04:07:47.626Z,90.90
2019-03-11T04:12:43.732Z,90.44
2019-03-11T04:17:39.650Z,89.97
2019-03-11T04:22:35.560Z,89.43
2019-03-11T04:27:32.194Z,89.30
2019-03-11T04:32:28.157Z,89.41
2019-03-11T04:37:24.058Z,89.31
2019-03-11T04:42:19.988Z,89.48
2019-03-11T04:47:15.976Z,89.46
2019-03-11T04:52:11.883Z,89.70
2019-03-11T04:57:08.889Z,89.58
2019-03-11T05:02:04.894Z,89.63
2019-03-11T05:07:00.802Z,89.34
2019-03-11T05:11:56.732Z,89.23
2019-03-11T05:16:52.636Z,89.20
2019-03-11T05:21:48.542Z,88.55
2019-03-11T05:26:46.948Z,88.51
2019-03-11T05:31:42.957Z,88.60
2019-03-11T05:36:38.862Z,88.58
2019-03-11T05:41:34.822Z,89.06
2019-03-11T05:46:31.162Z,89.11
2019-03-11T05:51:31.505Z,89.44
2019-03-11T05:56:25.075Z,89.30
2019-03-11T06:01:21.011Z,89.80
2019-03-11T06:06:16.892Z,89.98
2019-03-11T06:11:12.811Z,89.43
2019-03-11T06:16:08.749Z,89.02
2019-03-11T06:21:15.783Z,88.38
2019-03-11T06:26:11.789Z,87.81
2019-03-11T06:31:07.696Z,87.29
2019-03-11T06:36:03.765Z,87.43
2019-03-11T06:40:59.711Z,88.65
2019-03-11T06:45:55.616Z,89.43
2019-03-11T06:50:51.524Z,88.96
2019-03-11T06:55:47.437Z,87.28
2019-03-11T07:00:43.350Z,86.56
2019-03-11T07:05:39.267Z,88.29
2019-03-11T07:10:35.188Z,88.92
2019-03-11T07:15:31.086Z,88.99
2019-03-11T07:20:27.070Z,89.47
2019-03-11T07:25:23.037Z,88.76
2019-03-11T07:30:19.419Z,88.04
2019-03-11T07:35:15.434Z,87.05
2019-03-11T07:40:12.852Z,86.56
2019-03-11T07:45:10.556Z,86.65
2019-03-11T07:50:08.068Z,86.89
2019-03-11T07:55:09.636Z,87.45
2019-03-11T08:00:14.146Z,89.34
2019-03-11T08:05:10.167Z,90.06
2019-03-11T08:10:09.684Z,90.19
2019-03-11T08:15:08.996Z,90.47
2019-03-11T08:20:07.629Z,90.73
2019-03-11T08:25:05.732Z,91.57
2019-03-11T08:30:03.352Z,93.09
2019-03-11T08:34:59.253Z,93.35
2019-03-11T08:39:55.172Z,93.79
2019-03-11T08:44:51.057Z,93.82
2019-03-11T08:49:47.008Z,93.47
2019-03-11T08:54:42.909Z,93.23
2019-03-11T08:59:38.812Z,92.78
2019-03-11T09:04:34.816Z,92.23
2019-03-11T09:09:31.866Z,92.50
2019-03-11T09:14:27.940Z,92.45
2019-03-11T09:19:23.946Z,92.33
2019-03-11T09:24:19.855Z,92.46
2019-03-11T09:29:15.770Z,92.56
2019-03-11T09:34:11.685Z,92.30
2019-03-11T09:39:09.305Z,92.42
2019-03-11T09:44:05.313Z,92.22
2019-03-11T09:49:01.270Z,92.67
2019-03-11T09:53:57.176Z,92.62
2019-03-11T09:58:53.089Z,92.73
2019-03-11T10:03:49.001Z,93.45
2019-03-11T10:08:44.931Z,94.14
2019-03-11T10:13:41.698Z,94.33
2019-03-11T10:18:37.611Z,94.16
2019-03-11T10:23:33.517Z,93.73
2019-03-11T10:28:29.432Z,94.02
2019-03-11T10:33:25.339Z,93.93
2019-03-11T10:38:21.256Z,94.05
2019-03-11T10:43:17.266Z,93.92
2019-03-11T10:48:13.178Z,93.87
2019-03-11T10:53:09.093Z,93.87
2019-03-11T10:58:05.721Z,93.62
2019-03-11T11:03:01.677Z,92.92
2019-03-11T11:07:57.600Z,92.24
2019-03-11T11:12:53.500Z,91.68
2019-03-11T11:17:49.509Z,91.48
2019-03-11T11:22:45.505Z,90.99
2019-03-11T11:27:42.113Z,90.54
2019-03-11T11:32:37.980Z,88.78
2019-03-11T11:37:33.984Z,88.76
2019-03-11T11:42:29.924Z,87.78
2019-03-11T11:47:25.829Z,87.19
2019-03-11T11:52:21.801Z,87.11
2019-03-11T11:57:19.025Z,87.43
2019-03-11T12:02:15.108Z,87.42
2019-03-11T12:07:11.026Z,87.72
2019-03-11T12:12:06.978Z,88.50
2019-03-11T12:17:03.004Z,88.12
2019-03-11T12:21:58.909Z,87.99
2019-03-11T12:32:11.369Z,87.01
2019-03-11T12:37:07.279Z,86.96
2019-03-11T12:42:03.307Z,85.83
2019-03-11T12:46:59.217Z,85.27
2019-03-11T12:51:55.135Z,84.22
2019-03-11T12:56:51.740Z,84.18
2019-03-11T13:01:47.746Z,82.46
2019-03-11T13:06:43.630Z,81.83
2019-03-11T13:11:39.641Z,81.53
2019-03-11T13:16:35.544Z,80.50
2019-03-11T13:21:31.658Z,80.60
2019-03-11T13:26:27.618Z,79.80
2019-03-11T13:31:23.570Z,82.17
2019-03-11T13:36:20.614Z,85.56
2019-03-11T13:41:16.627Z,88.09
2019-03-11T13:46:12.577Z,88.50
2019-03-11T13:51:08.548Z,87.85
2019-03-11T13:56:04.604Z,86.50
2019-03-11T14:01:00.539Z,86.73
2019-03-11T14:05:56.412Z,86.31
2019-03-11T14:10:52.363Z,86.49
2019-03-11T14:15:48.266Z,85.12
2019-03-11T14:20:44.148Z,84.92
2019-03-11T14:25:40.236Z,84.63
2019-03-11T14:30:36.244Z,83.88
2019-03-11T14:35:32.158Z,83.81
2019-03-11T14:40:28.090Z,84.09
2019-03-11T14:45:24.048Z,84.10
2019-03-11T14:50:19.959Z,84.46
2019-03-11T14:55:15.869Z,83.84
2019-03-11T15:00:18.357Z,83.81
2019-03-11T15:05:16.905Z,85.58
2019-03-11T15:10:15.552Z,87.80
2019-03-11T15:15:13.968Z,88.83
2019-03-11T15:20:10.378Z,89.29
2019-03-11T15:25:08.387Z,88.66
2019-03-11T15:30:08.132Z,88.68
2019-03-11T15:35:06.162Z,88.40
2019-03-11T15:40:03.459Z,88.08
2019-03-11T15:45:01.974Z,87.10
2019-03-11T15:49:57.878Z,87.38
2019-03-11T15:54:53.824Z,86.95
2019-03-11T15:59:49.752Z,87.38
2019-03-11T16:04:45.658Z,87.23
2019-03-11T16:09:41.576Z,87.77
2019-03-11T16:14:37.480Z,88.57
2019-03-11T16:19:33.421Z,89.50
2019-03-11T16:24:29.422Z,89.65
2019-03-11T16:29:25.362Z,90.00
2019-03-11T16:34:21.371Z,90.13
2019-03-11T16:39:17.306Z,90.04
2019-03-11T16:44:13.268Z,90.85
2019-03-11T16:49:09.336Z,91.04
2019-03-11T16:54:05.349Z,91.01
2019-03-11T16:59:01.607Z,91.26
2019-03-11T17:03:57.735Z,91.40
2019-03-11T17:08:54.373Z,91.79
2019-03-11T17:13:52.534Z,92.10
2019-03-11T17:18:48.588Z,91.91
2019-03-11T17:23:44.543Z,91.69
2019-03-11T17:28:41.437Z,91.33
2019-03-11T17:33:37.449Z,91.07
2019-03-11T17:38:33.501Z,91.58
2019-03-11T17:43:29.577Z,91.49
2019-03-11T17:48:25.469Z,90.80
2019-03-11T17:53:21.400Z,91.26
2019-03-11T17:58:18.843Z,91.53
2019-03-11T18:03:14.917Z,92.11
2019-03-11T18:08:10.925Z,92.15
2019-03-11T18:13:06.877Z,91.66
2019-03-11T18:18:02.904Z,91.13
2019-03-11T18:22:58.809Z,90.17
2019-03-11T18:27:59.610Z,89.85
2019-03-11T18:32:57.137Z,87.93
2019-03-11T18:38:03.550Z,87.57
2019-03-11T18:42:50.971Z,85.17
2019-03-11T18:47:46.888Z,85.45
2019-03-11T18:52:52.904Z,84.63
2019-03-11T18:57:48.916Z,85.41
2019-03-11T19:02:46.134Z,85.06
2019-03-11T19:07:44.713Z,84.88
2019-03-11T19:12:40.836Z,85.04
2019-03-11T19:17:36.963Z,85.06
2019-03-11T19:22:33.033Z,84.58
2019-03-11T19:27:28.950Z,84.15
2019-03-11T19:32:25.015Z,83.60
2019-03-11T19:37:21.115Z,82.89
2019-03-11T19:42:17.184Z,83.59
2019-03-11T19:47:13.191Z,83.92
2019-03-11T19:52:09.255Z,84.83
2019-03-11T19:57:05.185Z,85.70
2019-03-11T20:02:01.225Z,85.94
2019-03-11T20:06:57.210Z,85.77
2019-03-11T20:11:54.170Z,86.36
2019-03-11T20:16:50.472Z,86.57
2019-03-11T20:21:46.570Z,86.65
2019-03-11T20:26:42.497Z,86.52
2019-03-11T20:31:38.514Z,86.81
2019-03-11T20:36:34.528Z,87.10
2019-03-11T20:41:30.564Z,87.07
2019-03-11T20:46:26.589Z,87.20
2019-03-11T20:51:22.579Z,87.18
2019-03-11T20:56:18.690Z,87.68
2019-03-11T21:01:14.727Z,88.19
2019-03-11T21:06:10.744Z,88.55
2019-03-11T21:11:06.756Z,88.93
2019-03-11T21:16:05.838Z,89.48
2019-03-11T21:21:05.227Z,89.61
2019-03-11T21:25:59.967Z,89.53
2019-03-11T21:30:57.553Z,89.51
2019-03-11T21:35:53.549Z,89.56
2019-03-11T21:40:49.581Z,89.53
2019-03-11T21:45:45.615Z,89.44
2019-03-11T21:50:41.769Z,89.63
2019-03-11T21:55:37.736Z,89.88
2019-03-11T22:00:35.084Z,90.12
2019-03-11T22:05:31.442Z,90.03
2019-03-11T22:10:27.390Z,89.97
2019-03-11T22:15:24.597Z,90.21
2019-03-11T22:20:20.888Z,90.01
2019-03-11T22:25:17.803Z,89.93
2019-03-11T22:30:17.597Z,90.05
2019-03-11T22:35:13.567Z,90.21
2019-03-11T22:40:11.659Z,90.15
2019-03-11T22:45:10.070Z,90.33
2019-03-11T22:50:08.187Z,90.28
2019-03-11T22:55:06.559Z,90.26
2019-03-11T23:00:18.757Z,90.54
2019-03-11T23:05:14.825Z,90.56
2019-03-11T23:10:10.862Z,90.67
2019-03-11T23:15:07.612Z,90.57
2019-03-11T23:20:05.406Z,90.43
2019-03-11T23:25:01.793Z,90.93
2019-03-11T23:29:57.703Z,91.07
2019-03-11T23:34:53.600Z,91.51
2019-03-11T23:39:49.503Z,92.00
2019-03-11T23:44:45.416Z,92.07
2019-03-11T23:49:41.327Z,91.94
2019-03-11T23:54:37.238Z,92.22
2019-03-11T23:59:33.139Z,92.40
